هوانوردی

آموزش خواندن متار:

گزارشات هواشناسی شاملMETAR: هوای حاضر فرودگاهTAFO: پیش بینی برای شهر هاAREA FOR CAST : پیش بینی منطقه ایییک نمونه از METAR که مربوط به فرودگاه مهرآباد استOIII 122255Z 00000KT 2000 -SN BR FEW030CB FEW035 OVC09 M06/M06 Q1022 A3018 886.2خوب خواندن این گزارش به صورت زیر است

کامل ترین آموزش فارسی A320

آموزش فارسی هواپیمای A320 Cold and Dark توسط استاد تایماز سپاهی مدت زمان ویدیو : ۱ ساعت و ۴۵ دقیقه       جهت دانلود هواپیما به لینک زیر بروید...

۵

آموزش سیستم برق MD 80

[smartslider3 slider=2] چهارمین محصول اف اس سنتر که منتشر شد از جمله تایپ هایی که مورد علاقه ی کاربران شبیه ساز هست میتوان از این محصول نام برد حال به...

آموزش ناوبری VOR پارت دوم

پارت دوم آموزش ناوبری VOR منتشر شد   VOR:very high frequency omnidirectional range از سال ۱۹۴۹ VOR به عنوان یک سیستم استاندارد جهانی و دستگاه ناوبری و در مواردی برای...

۲

Static Port

Static port is mounted at the side of fuselage and is connected to all three instruments(Altimeter,Speed indicator,Vertical speed indicator). There is an alternate static port wich can be used in...

۱

Altitude Definitions

Altitude Definitions: Indicated Altitude: The Alititude We read when We have set Correct(Current)QNH.This Alititude is Above Mean sea Level and the term ALTITUDE is used for it. Calibrated Altitude: It...